sensor_id;sensor_type;location;lat;lon;timestamp;pressure;altitude;pressure_sealevel;temperature;humidity
42727;BME280;28372;56.832;60.658;2023-05-07T00:00:54;97361.22;;;15.94;26.80
42727;BME280;28372;56.832;60.658;2023-05-07T00:03:22;97361.69;;;15.89;26.92
42727;BME280;28372;56.832;60.658;2023-05-07T00:05:50;97352.56;;;15.75;27.63
42727;BME280;28372;56.832;60.658;2023-05-07T00:08:20;97369.38;;;15.70;27.79
42727;BME280;28372;56.832;60.658;2023-05-07T00:10:48;97367.19;;;15.62;28.05
42727;BME280;28372;56.832;60.658;2023-05-07T00:13:15;97363.00;;;15.57;27.78
42727;BME280;28372;56.832;60.658;2023-05-07T00:15:43;97364.09;;;15.59;28.13
42727;BME280;28372;56.832;60.658;2023-05-07T00:18:10;97370.25;;;15.64;27.90
42727;BME280;28372;56.832;60.658;2023-05-07T00:20:38;97370.22;;;15.67;27.38
42727;BME280;28372;56.832;60.658;2023-05-07T00:23:06;97360.31;;;15.53;27.77
42727;BME280;28372;56.832;60.658;2023-05-07T00:25:33;97366.06;;;15.35;28.00
42727;BME280;28372;56.832;60.658;2023-05-07T00:28:01;97367.13;;;15.18;28.34
42727;BME280;28372;56.832;60.658;2023-05-07T00:30:29;97359.38;;;15.16;28.64
42727;BME280;28372;56.832;60.658;2023-05-07T00:32:57;97366.09;;;15.08;28.52
42727;BME280;28372;56.832;60.658;2023-05-07T00:35:25;97371.53;;;15.08;28.82
42727;BME280;28372;56.832;60.658;2023-05-07T00:37:53;97362.28;;;15.02;28.99
42727;BME280;28372;56.832;60.658;2023-05-07T00:40:21;97381.44;;;14.95;28.63
42727;BME280;28372;56.832;60.658;2023-05-07T00:42:49;97377.69;;;14.85;29.17
42727;BME280;28372;56.832;60.658;2023-05-07T00:45:17;97376.25;;;14.77;29.36
42727;BME280;28372;56.832;60.658;2023-05-07T00:47:44;97371.16;;;14.79;29.00
42727;BME280;28372;56.832;60.658;2023-05-07T00:50:12;97364.16;;;14.81;29.07
42727;BME280;28372;56.832;60.658;2023-05-07T00:52:40;97369.31;;;14.99;28.22
42727;BME280;28372;56.832;60.658;2023-05-07T00:55:09;97370.66;;;15.15;28.56
42727;BME280;28372;56.832;60.658;2023-05-07T00:57:39;97378.75;;;15.22;28.73
42727;BME280;28372;56.832;60.658;2023-05-07T01:00:08;97382.31;;;15.15;28.63
42727;BME280;28372;56.832;60.658;2023-05-07T01:02:38;97369.59;;;15.08;28.85
42727;BME280;28372;56.832;60.658;2023-05-07T01:05:08;97385.78;;;15.19;29.21
42727;BME280;28372;56.832;60.658;2023-05-07T01:07:38;97377.19;;;15.21;29.11
42727;BME280;28372;56.832;60.658;2023-05-07T01:10:08;97374.47;;;15.21;29.21
42727;BME280;28372;56.832;60.658;2023-05-07T01:12:37;97372.88;;;15.23;29.00
42727;BME280;28372;56.832;60.658;2023-05-07T01:15:08;97377.84;;;15.29;29.08
42727;BME280;28372;56.832;60.658;2023-05-07T01:17:38;97379.28;;;15.37;29.12
42727;BME280;28372;56.832;60.658;2023-05-07T01:20:12;97383.13;;;15.39;29.04
42727;BME280;28372;56.832;60.658;2023-05-07T01:22:43;97375.25;;;15.45;28.87
42727;BME280;28372;56.832;60.658;2023-05-07T01:25:11;97371.66;;;15.52;28.95
42727;BME280;28372;56.832;60.658;2023-05-07T01:27:44;97364.59;;;15.54;29.21
42727;BME280;28372;56.832;60.658;2023-05-07T01:30:12;97360.19;;;15.61;29.56
42727;BME280;28372;56.832;60.658;2023-05-07T01:32:56;97358.31;;;15.81;28.92
42727;BME280;28372;56.832;60.658;2023-05-07T01:35:32;97366.38;;;15.88;29.00
42727;BME280;28372;56.832;60.658;2023-05-07T01:38:02;97361.34;;;15.87;28.72
42727;BME280;28372;56.832;60.658;2023-05-07T01:40:32;97356.94;;;15.93;28.51
42727;BME280;28372;56.832;60.658;2023-05-07T01:43:05;97362.91;;;16.08;28.77
42727;BME280;28372;56.832;60.658;2023-05-07T01:45:35;97365.97;;;16.10;28.61
42727;BME280;28372;56.832;60.658;2023-05-07T01:48:03;97363.53;;;16.16;28.28
42727;BME280;28372;56.832;60.658;2023-05-07T01:50:32;97362.97;;;16.24;28.53
42727;BME280;28372;56.832;60.658;2023-05-07T01:53:01;97347.78;;;16.23;28.02
42727;BME280;28372;56.832;60.658;2023-05-07T01:55:29;97363.47;;;16.39;28.36
42727;BME280;28372;56.832;60.658;2023-05-07T01:57:58;97365.84;;;16.37;28.50
42727;BME280;28372;56.832;60.658;2023-05-07T02:00:25;97369.56;;;16.47;28.47
42727;BME280;28372;56.832;60.658;2023-05-07T02:02:53;97374.44;;;16.56;28.20
42727;BME280;28372;56.832;60.658;2023-05-07T02:05:33;97372.69;;;16.66;27.77
42727;BME280;28372;56.832;60.658;2023-05-07T02:08:07;97367.81;;;16.73;27.74
42727;BME280;28372;56.832;60.658;2023-05-07T02:10:35;97360.25;;;16.81;27.64
42727;BME280;28372;56.832;60.658;2023-05-07T02:13:05;97364.31;;;16.93;27.80
42727;BME280;28372;56.832;60.658;2023-05-07T02:15:33;97370.72;;;17.03;27.58
42727;BME280;28372;56.832;60.658;2023-05-07T02:18:05;97382.53;;;17.16;27.39
42727;BME280;28372;56.832;60.658;2023-05-07T02:20:34;97374.53;;;17.25;27.26
42727;BME280;28372;56.832;60.658;2023-05-07T02:23:02;97369.22;;;17.35;27.11
42727;BME280;28372;56.832;60.658;2023-05-07T02:25:30;97368.97;;;17.45;26.96
42727;BME280;28372;56.832;60.658;2023-05-07T02:27:58;97377.59;;;17.60;26.87
42727;BME280;28372;56.832;60.658;2023-05-07T02:30:55;97375.38;;;17.72;27.10
42727;BME280;28372;56.832;60.658;2023-05-07T02:33:23;97386.63;;;17.90;27.04
42727;BME280;28372;56.832;60.658;2023-05-07T02:35:50;97388.13;;;18.08;26.91
42727;BME280;28372;56.832;60.658;2023-05-07T02:38:21;97374.53;;;18.21;26.82
42727;BME280;28372;56.832;60.658;2023-05-07T02:40:49;97368.88;;;18.41;26.62
42727;BME280;28372;56.832;60.658;2023-05-07T02:43:17;97370.84;;;18.95;26.66
42727;BME280;28372;56.832;60.658;2023-05-07T02:45:47;97362.50;;;19.85;25.83
42727;BME280;28372;56.832;60.658;2023-05-07T02:48:15;97365.44;;;20.80;24.85
42727;BME280;28372;56.832;60.658;2023-05-07T02:50:43;97365.91;;;21.69;23.99
42727;BME280;28372;56.832;60.658;2023-05-07T02:53:12;97380.47;;;22.53;23.06
42727;BME280;28372;56.832;60.658;2023-05-07T02:55:40;97375.88;;;23.35;22.37
42727;BME280;28372;56.832;60.658;2023-05-07T02:58:08;97360.28;;;24.05;21.59
42727;BME280;28372;56.832;60.658;2023-05-07T03:00:37;97371.69;;;24.82;20.67
42727;BME280;28372;56.832;60.658;2023-05-07T03:03:28;97359.41;;;25.54;20.13
42727;BME280;28372;56.832;60.658;2023-05-07T03:05:56;97370.84;;;26.23;19.38
42727;BME280;28372;56.832;60.658;2023-05-07T03:08:24;97371.22;;;26.89;19.15
42727;BME280;28372;56.832;60.658;2023-05-07T03:10:52;97376.94;;;27.49;18.69
42727;BME280;28372;56.832;60.658;2023-05-07T03:13:19;97364.31;;;28.09;17.95
42727;BME280;28372;56.832;60.658;2023-05-07T03:15:48;97369.97;;;28.65;17.62
42727;BME280;28372;56.832;60.658;2023-05-07T03:18:16;97370.47;;;28.98;17.73
42727;BME280;28372;56.832;60.658;2023-05-07T03:20:43;97368.38;;;29.49;17.05
42727;BME280;28372;56.832;60.658;2023-05-07T03:23:11;97375.59;;;29.92;17.15
42727;BME280;28372;56.832;60.658;2023-05-07T03:25:39;97369.00;;;30.37;17.30
42727;BME280;28372;56.832;60.658;2023-05-07T03:28:07;97371.53;;;30.82;17.03
42727;BME280;28372;56.832;60.658;2023-05-07T03:30:44;97377.69;;;31.30;17.21
42727;BME280;28372;56.832;60.658;2023-05-07T03:33:11;97377.53;;;31.72;17.09
42727;BME280;28372;56.832;60.658;2023-05-07T03:35:40;97367.44;;;32.07;16.63
42727;BME280;28372;56.832;60.658;2023-05-07T03:38:08;97370.59;;;32.55;16.37
42727;BME280;28372;56.832;60.658;2023-05-07T03:40:37;97362.66;;;32.91;15.92
42727;BME280;28372;56.832;60.658;2023-05-07T03:43:05;97364.34;;;33.27;15.58
42727;BME280;28372;56.832;60.658;2023-05-07T03:45:35;97363.56;;;33.67;15.47
42727;BME280;28372;56.832;60.658;2023-05-07T03:48:11;97352.56;;;33.95;15.02
42727;BME280;28372;56.832;60.658;2023-05-07T03:50:39;97364.38;;;34.28;14.69
42727;BME280;28372;56.832;60.658;2023-05-07T03:53:07;97359.16;;;34.54;14.48
42727;BME280;28372;56.832;60.658;2023-05-07T03:55:38;97351.44;;;34.89;14.26
42727;BME280;28372;56.832;60.658;2023-05-07T03:58:06;97363.28;;;35.16;14.11
42727;BME280;28372;56.832;60.658;2023-05-07T04:00:34;97365.03;;;35.48;13.98
42727;BME280;28372;56.832;60.658;2023-05-07T04:03:15;97362.13;;;35.69;13.67
42727;BME280;28372;56.832;60.658;2023-05-07T04:05:43;97356.09;;;36.01;13.61
42727;BME280;28372;56.832;60.658;2023-05-07T04:08:11;97348.47;;;36.25;13.09
42727;BME280;28372;56.832;60.658;2023-05-07T04:10:41;97351.34;;;36.48;13.30
42727;BME280;28372;56.832;60.658;2023-05-07T04:13:10;97349.34;;;36.80;12.89
42727;BME280;28372;56.832;60.658;2023-05-07T04:15:38;97346.34;;;37.01;13.01
42727;BME280;28372;56.832;60.658;2023-05-07T04:18:09;97337.66;;;37.37;12.75
42727;BME280;28372;56.832;60.658;2023-05-07T04:20:38;97338.16;;;37.59;12.45
42727;BME280;28372;56.832;60.658;2023-05-07T04:23:10;97349.53;;;36.97;12.59
42727;BME280;28372;56.832;60.658;2023-05-07T04:25:38;97337.72;;;37.70;12.37
42727;BME280;28372;56.832;60.658;2023-05-07T04:28:21;97336.31;;;38.02;11.87
42727;BME280;28372;56.832;60.658;2023-05-07T04:30:49;97325.81;;;38.28;11.87
42727;BME280;28372;56.832;60.658;2023-05-07T04:33:17;97326.75;;;38.56;11.90
42727;BME280;28372;56.832;60.658;2023-05-07T04:35:46;97321.69;;;38.80;11.60
42727;BME280;28372;56.832;60.658;2023-05-07T04:38:14;97322.59;;;39.07;11.32
42727;BME280;28372;56.832;60.658;2023-05-07T04:40:42;97318.28;;;39.41;11.48
42727;BME280;28372;56.832;60.658;2023-05-07T04:43:14;97314.78;;;39.68;11.22
42727;BME280;28372;56.832;60.658;2023-05-07T04:45:50;97320.19;;;39.74;11.06
42727;BME280;28372;56.832;60.658;2023-05-07T04:48:19;97316.06;;;40.02;10.70
42727;BME280;28372;56.832;60.658;2023-05-07T04:50:50;97321.38;;;40.16;10.86
42727;BME280;28372;56.832;60.658;2023-05-07T04:53:20;97319.81;;;40.32;10.60
42727;BME280;28372;56.832;60.658;2023-05-07T04:55:55;97324.63;;;40.39;10.52
42727;BME280;28372;56.832;60.658;2023-05-07T04:58:29;97311.91;;;40.68;10.43
42727;BME280;28372;56.832;60.658;2023-05-07T05:00:59;97319.25;;;40.81;10.01
42727;BME280;28372;56.832;60.658;2023-05-07T05:03:28;97323.66;;;41.01;10.40
42727;BME280;28372;56.832;60.658;2023-05-07T05:05:57;97317.56;;;41.15;10.09
42727;BME280;28372;56.832;60.658;2023-05-07T05:08:29;97324.56;;;40.57;10.30
42727;BME280;28372;56.832;60.658;2023-05-07T05:11:01;97318.31;;;41.15;9.91
42727;BME280;28372;56.832;60.658;2023-05-07T05:13:31;97310.56;;;41.45;9.94
42727;BME280;28372;56.832;60.658;2023-05-07T05:16:02;97300.84;;;41.68;10.01
42727;BME280;28372;56.832;60.658;2023-05-07T05:18:32;97296.06;;;41.80;10.06
42727;BME280;28372;56.832;60.658;2023-05-07T05:20:59;97289.19;;;41.83;10.51
42727;BME280;28372;56.832;60.658;2023-05-07T05:23:28;97289.66;;;41.80;9.81
42727;BME280;28372;56.832;60.658;2023-05-07T05:25:57;97286.22;;;41.81;9.86
42727;BME280;28372;56.832;60.658;2023-05-07T05:28:27;97274.63;;;41.99;9.96
42727;BME280;28372;56.832;60.658;2023-05-07T05:30:55;97279.84;;;42.12;9.73
42727;BME280;28372;56.832;60.658;2023-05-07T05:33:25;97273.69;;;42.25;9.85
42727;BME280;28372;56.832;60.658;2023-05-07T05:35:54;97284.94;;;42.45;9.78
42727;BME280;28372;56.832;60.658;2023-05-07T05:38:21;97283.72;;;42.58;9.62
42727;BME280;28372;56.832;60.658;2023-05-07T05:40:50;97278.72;;;42.68;9.64
42727;BME280;28372;56.832;60.658;2023-05-07T05:43:20;97264.56;;;42.80;9.65
42727;BME280;28372;56.832;60.658;2023-05-07T05:45:48;97270.34;;;42.92;9.67
42727;BME280;28372;56.832;60.658;2023-05-07T05:48:15;97257.25;;;43.08;9.65
42727;BME280;28372;56.832;60.658;2023-05-07T05:50:43;97265.69;;;43.18;9.36
42727;BME280;28372;56.832;60.658;2023-05-07T05:53:11;97257.69;;;43.26;9.33
42727;BME280;28372;56.832;60.658;2023-05-07T05:55:39;97258.06;;;43.33;9.25
42727;BME280;28372;56.832;60.658;2023-05-07T05:58:07;97252.28;;;43.42;9.26
42727;BME280;28372;56.832;60.658;2023-05-07T06:00:39;97241.63;;;43.09;9.49
42727;BME280;28372;56.832;60.658;2023-05-07T06:03:07;97251.19;;;42.92;9.30
42727;BME280;28372;56.832;60.658;2023-05-07T06:05:36;97246.91;;;43.03;9.54
42727;BME280;28372;56.832;60.658;2023-05-07T06:08:04;97247.66;;;43.04;9.69
42727;BME280;28372;56.832;60.658;2023-05-07T06:10:38;97249.56;;;43.11;9.18
42727;BME280;28372;56.832;60.658;2023-05-07T06:13:07;97239.91;;;43.04;9.43
42727;BME280;28372;56.832;60.658;2023-05-07T06:15:36;97242.78;;;42.73;9.74
42727;BME280;28372;56.832;60.658;2023-05-07T06:18:09;97232.50;;;42.36;9.43
42727;BME280;28372;56.832;60.658;2023-05-07T06:20:36;97231.09;;;42.16;9.63
42727;BME280;28372;56.832;60.658;2023-05-07T06:23:10;97224.38;;;41.60;9.91
42727;BME280;28372;56.832;60.658;2023-05-07T06:25:37;97220.53;;;41.36;9.99
42727;BME280;28372;56.832;60.658;2023-05-07T06:28:05;97226.94;;;41.36;10.32
42727;BME280;28372;56.832;60.658;2023-05-07T06:30:35;97225.13;;;41.31;10.05
42727;BME280;28372;56.832;60.658;2023-05-07T06:33:03;97233.47;;;40.80;10.27
42727;BME280;28372;56.832;60.658;2023-05-07T06:35:30;97228.13;;;40.47;10.34
42727;BME280;28372;56.832;60.658;2023-05-07T06:38:00;97236.63;;;40.37;10.73
42727;BME280;28372;56.832;60.658;2023-05-07T06:40:29;97217.06;;;40.32;11.13
42727;BME280;28372;56.832;60.658;2023-05-07T06:42:59;97216.13;;;40.10;10.94
42727;BME280;28372;56.832;60.658;2023-05-07T06:45:46;97210.44;;;39.82;10.93
42727;BME280;28372;56.832;60.658;2023-05-07T06:48:14;97205.06;;;39.77;11.19
42727;BME280;28372;56.832;60.658;2023-05-07T06:50:50;97209.63;;;39.99;11.42
42727;BME280;28372;56.832;60.658;2023-05-07T06:53:18;97194.66;;;40.16;11.52
42727;BME280;28372;56.832;60.658;2023-05-07T06:55:46;97195.16;;;40.32;11.45
42727;BME280;28372;56.832;60.658;2023-05-07T06:58:15;97189.13;;;40.65;11.43
42727;BME280;28372;56.832;60.658;2023-05-07T07:00:43;97187.66;;;40.84;10.93
42727;BME280;28372;56.832;60.658;2023-05-07T07:03:12;97182.75;;;41.14;10.95
42727;BME280;28372;56.832;60.658;2023-05-07T07:05:41;97187.38;;;41.19;10.97
42727;BME280;28372;56.832;60.658;2023-05-07T07:08:09;97190.22;;;41.29;10.68
42727;BME280;28372;56.832;60.658;2023-05-07T07:10:37;97178.84;;;41.38;10.78
42727;BME280;28372;56.832;60.658;2023-05-07T07:13:05;97173.47;;;41.42;10.58
42727;BME280;28372;56.832;60.658;2023-05-07T07:15:33;97172.31;;;41.16;11.01
42727;BME280;28372;56.832;60.658;2023-05-07T07:18:00;97163.63;;;41.04;10.75
42727;BME280;28372;56.832;60.658;2023-05-07T07:20:28;97159.91;;;41.02;10.70
42727;BME280;28372;56.832;60.658;2023-05-07T07:22:56;97151.25;;;40.90;11.13
42727;BME280;28372;56.832;60.658;2023-05-07T07:25:23;97155.25;;;40.48;11.35
42727;BME280;28372;56.832;60.658;2023-05-07T07:27:51;97158.13;;;40.11;11.33
42727;BME280;28372;56.832;60.658;2023-05-07T07:30:21;97158.41;;;39.50;11.05
42727;BME280;28372;56.832;60.658;2023-05-07T07:32:49;97153.53;;;38.88;11.71
42727;BME280;28372;56.832;60.658;2023-05-07T07:35:17;97156.47;;;38.38;11.91
42727;BME280;28372;56.832;60.658;2023-05-07T07:37:45;97163.25;;;37.92;12.48
42727;BME280;28372;56.832;60.658;2023-05-07T07:40:14;97152.22;;;37.46;12.48
42727;BME280;28372;56.832;60.658;2023-05-07T07:42:42;97169.41;;;37.25;13.04
42727;BME280;28372;56.832;60.658;2023-05-07T07:45:11;97164.66;;;36.94;14.00
42727;BME280;28372;56.832;60.658;2023-05-07T07:47:43;97161.88;;;36.63;14.30
42727;BME280;28372;56.832;60.658;2023-05-07T07:50:12;97167.72;;;36.19;14.19
42727;BME280;28372;56.832;60.658;2023-05-07T07:52:51;97168.84;;;35.85;14.48
42727;BME280;28372;56.832;60.658;2023-05-07T07:55:20;97180.56;;;35.53;14.58
42727;BME280;28372;56.832;60.658;2023-05-07T07:57:52;97172.72;;;35.14;15.19
42727;BME280;28372;56.832;60.658;2023-05-07T08:00:21;97178.03;;;34.89;15.28
42727;BME280;28372;56.832;60.658;2023-05-07T08:02:53;97191.59;;;34.77;14.97
42727;BME280;28372;56.832;60.658;2023-05-07T08:05:26;97194.91;;;34.39;15.42
42727;BME280;28372;56.832;60.658;2023-05-07T08:07:54;97203.13;;;34.16;15.60
42727;BME280;28372;56.832;60.658;2023-05-07T08:10:26;97202.91;;;33.93;15.77
42727;BME280;28372;56.832;60.658;2023-05-07T08:13:01;97200.41;;;33.68;15.83
42727;BME280;28372;56.832;60.658;2023-05-07T08:15:32;97199.28;;;33.50;16.06
42727;BME280;28372;56.832;60.658;2023-05-07T08:18:01;97213.22;;;33.16;16.13
42727;BME280;28372;56.832;60.658;2023-05-07T08:20:30;97214.09;;;32.84;16.48
42727;BME280;28372;56.832;60.658;2023-05-07T08:22:58;97208.97;;;32.55;16.63
42727;BME280;28372;56.832;60.658;2023-05-07T08:25:26;97212.38;;;32.35;16.65
42727;BME280;28372;56.832;60.658;2023-05-07T08:27:54;97218.78;;;32.16;16.79
42727;BME280;28372;56.832;60.658;2023-05-07T08:30:23;97218.59;;;31.95;17.04
42727;BME280;28372;56.832;60.658;2023-05-07T08:32:51;97232.47;;;31.68;17.38
42727;BME280;28372;56.832;60.658;2023-05-07T08:35:19;97245.03;;;31.37;17.22
42727;BME280;28372;56.832;60.658;2023-05-07T08:37:47;97245.38;;;31.08;17.90
42727;BME280;28372;56.832;60.658;2023-05-07T08:40:16;97255.88;;;30.72;17.86
42727;BME280;28372;56.832;60.658;2023-05-07T08:42:45;97274.34;;;30.81;17.94
42727;BME280;28372;56.832;60.658;2023-05-07T08:45:14;97276.03;;;30.59;17.66
42727;BME280;28372;56.832;60.658;2023-05-07T08:47:46;97276.72;;;30.35;17.54
42727;BME280;28372;56.832;60.658;2023-05-07T08:50:17;97284.94;;;30.21;17.87
42727;BME280;28372;56.832;60.658;2023-05-07T08:52:45;97297.38;;;29.73;18.15
42727;BME280;28372;56.832;60.658;2023-05-07T08:55:13;97290.97;;;29.25;18.44
42727;BME280;28372;56.832;60.658;2023-05-07T08:57:41;97290.28;;;28.85;18.67
42727;BME280;28372;56.832;60.658;2023-05-07T09:00:11;97303.44;;;28.62;19.02
42727;BME280;28372;56.832;60.658;2023-05-07T09:02:40;97281.94;;;28.34;19.40
42727;BME280;28372;56.832;60.658;2023-05-07T09:05:09;97293.06;;;28.23;19.18
42727;BME280;28372;56.832;60.658;2023-05-07T09:07:38;97295.31;;;28.07;19.53
42727;BME280;28372;56.832;60.658;2023-05-07T09:10:07;97295.25;;;27.90;19.29
42727;BME280;28372;56.832;60.658;2023-05-07T09:12:37;97302.75;;;27.67;20.12
42727;BME280;28372;56.832;60.658;2023-05-07T09:15:08;97297.88;;;27.45;20.14
42727;BME280;28372;56.832;60.658;2023-05-07T09:17:36;97297.22;;;27.24;20.24
42727;BME280;28372;56.832;60.658;2023-05-07T09:20:05;97313.78;;;27.07;19.88
42727;BME280;28372;56.832;60.658;2023-05-07T09:22:38;97335.97;;;26.69;20.23
42727;BME280;28372;56.832;60.658;2023-05-07T09:25:10;97330.81;;;26.56;20.34
42727;BME280;28372;56.832;60.658;2023-05-07T09:27:40;97343.94;;;26.29;20.14
42727;BME280;28372;56.832;60.658;2023-05-07T09:30:09;97358.31;;;26.07;20.59
42727;BME280;28372;56.832;60.658;2023-05-07T09:32:37;97354.44;;;25.78;21.13
42727;BME280;28372;56.832;60.658;2023-05-07T09:35:16;97367.59;;;25.83;21.00
42727;BME280;28372;56.832;60.658;2023-05-07T09:37:50;97365.44;;;25.17;21.78
42727;BME280;28372;56.832;60.658;2023-05-07T09:40:25;97381.47;;;25.12;22.29
42727;BME280;28372;56.832;60.658;2023-05-07T09:42:55;97390.97;;;24.61;22.41
42727;BME280;28372;56.832;60.658;2023-05-07T09:45:27;97389.78;;;24.53;23.00
42727;BME280;28372;56.832;60.658;2023-05-07T09:47:58;97385.81;;;24.15;23.16
42727;BME280;28372;56.832;60.658;2023-05-07T09:50:29;97402.28;;;24.09;23.43
42727;BME280;28372;56.832;60.658;2023-05-07T09:53:00;97415.91;;;23.64;23.75
42727;BME280;28372;56.832;60.658;2023-05-07T09:55:29;97420.38;;;23.28;24.16
42727;BME280;28372;56.832;60.658;2023-05-07T09:57:58;97431.00;;;23.02;24.31
42727;BME280;28372;56.832;60.658;2023-05-07T10:00:29;97446.56;;;22.71;24.48
42727;BME280;28372;56.832;60.658;2023-05-07T10:03:07;97450.25;;;22.68;24.64
42727;BME280;28372;56.832;60.658;2023-05-07T10:05:44;97447.47;;;22.31;24.88
42727;BME280;28372;56.832;60.658;2023-05-07T10:08:14;97468.75;;;22.21;24.88
42727;BME280;28372;56.832;60.658;2023-05-07T10:10:46;97470.41;;;21.91;25.24
42727;BME280;28372;56.832;60.658;2023-05-07T10:13:19;97488.09;;;21.81;25.26
42727;BME280;28372;56.832;60.658;2023-05-07T10:15:51;97476.69;;;21.51;25.54
42727;BME280;28372;56.832;60.658;2023-05-07T10:18:20;97492.50;;;21.37;25.68
42727;BME280;28372;56.832;60.658;2023-05-07T10:20:53;97486.88;;;21.10;26.28
42727;BME280;28372;56.832;60.658;2023-05-07T10:23:23;97481.13;;;20.95;26.39
42727;BME280;28372;56.832;60.658;2023-05-07T10:25:56;97487.53;;;20.69;26.51
42727;BME280;28372;56.832;60.658;2023-05-07T10:28:33;97488.03;;;20.55;27.22
42727;BME280;28372;56.832;60.658;2023-05-07T10:31:12;97493.72;;;20.61;26.90
42727;BME280;28372;56.832;60.658;2023-05-07T10:33:47;97508.38;;;20.45;27.05
42727;BME280;28372;56.832;60.658;2023-05-07T10:36:18;97508.91;;;20.17;27.41
42727;BME280;28372;56.832;60.658;2023-05-07T10:38:47;97492.91;;;19.90;27.94
42727;BME280;28372;56.832;60.658;2023-05-07T10:41:16;97484.22;;;19.92;27.84
42727;BME280;28372;56.832;60.658;2023-05-07T10:43:46;97500.81;;;19.75;27.82
42727;BME280;28372;56.832;60.658;2023-05-07T10:46:25;97512.88;;;19.52;28.23
42727;BME280;28372;56.832;60.658;2023-05-07T10:51:38;97500.34;;;19.25;28.49
42727;BME280;28372;56.832;60.658;2023-05-07T10:54:20;97503.84;;;19.13;28.79
42727;BME280;28372;56.832;60.658;2023-05-07T10:56:55;97518.63;;;19.03;29.10
42727;BME280;28372;56.832;60.658;2023-05-07T10:59:31;97527.28;;;19.01;29.50
42727;BME280;28372;56.832;60.658;2023-05-07T11:02:14;97513.06;;;18.77;29.52
42727;BME280;28372;56.832;60.658;2023-05-07T11:05:18;97536.72;;;19.13;29.21
42727;BME280;28372;56.832;60.658;2023-05-07T11:08:03;97538.53;;;18.90;29.51
42727;BME280;28372;56.832;60.658;2023-05-07T11:10:53;97533.53;;;18.85;29.91
42727;BME280;28372;56.832;60.658;2023-05-07T11:13:59;97532.09;;;18.97;29.85
42727;BME280;28372;56.832;60.658;2023-05-07T11:16:44;97520.03;;;18.48;30.31
42727;BME280;28372;56.832;60.658;2023-05-07T11:19:49;97531.78;;;18.78;30.08
42727;BME280;28372;56.832;60.658;2023-05-07T11:25:09;97531.81;;;18.16;30.81
42727;BME280;28372;56.832;60.658;2023-05-07T11:27:38;97523.00;;;17.92;31.10
42727;BME280;28372;56.832;60.658;2023-05-07T11:30:06;97527.25;;;17.76;30.89
42727;BME280;28372;56.832;60.658;2023-05-07T11:32:34;97532.63;;;17.63;31.05
42727;BME280;28372;56.832;60.658;2023-05-07T11:35:01;97524.72;;;17.49;31.19
42727;BME280;28372;56.832;60.658;2023-05-07T11:37:30;97531.66;;;17.54;31.12
42727;BME280;28372;56.832;60.658;2023-05-07T11:40:05;97547.69;;;17.52;32.30
42727;BME280;28372;56.832;60.658;2023-05-07T11:42:35;97541.09;;;17.33;31.96
42727;BME280;28372;56.832;60.658;2023-05-07T11:45:06;97538.41;;;17.29;31.66
42727;BME280;28372;56.832;60.658;2023-05-07T11:47:34;97530.09;;;17.16;31.61
42727;BME280;28372;56.832;60.658;2023-05-07T11:50:06;97544.47;;;17.20;31.83
42727;BME280;28372;56.832;60.658;2023-05-07T11:52:35;97546.00;;;17.01;32.38
42727;BME280;28372;56.832;60.658;2023-05-07T11:55:03;97563.03;;;16.89;33.13
42727;BME280;28372;56.832;60.658;2023-05-07T11:57:33;97563.69;;;16.73;34.15
42727;BME280;28372;56.832;60.658;2023-05-07T12:00:02;97568.16;;;16.63;34.69
42727;BME280;28372;56.832;60.658;2023-05-07T12:02:40;97548.16;;;16.46;33.78
42727;BME280;28372;56.832;60.658;2023-05-07T12:05:09;97550.47;;;16.48;34.01
42727;BME280;28372;56.832;60.658;2023-05-07T12:07:37;97574.44;;;16.36;34.18
42727;BME280;28372;56.832;60.658;2023-05-07T12:10:05;97573.19;;;16.17;34.05
42727;BME280;28372;56.832;60.658;2023-05-07T12:12:40;97569.53;;;16.27;34.63
42727;BME280;28372;56.832;60.658;2023-05-07T12:15:09;97577.38;;;15.98;33.88
42727;BME280;28372;56.832;60.658;2023-05-07T12:17:38;97570.22;;;15.81;33.97
42727;BME280;28372;56.832;60.658;2023-05-07T12:20:07;97562.59;;;15.68;34.16
42727;BME280;28372;56.832;60.658;2023-05-07T12:22:35;97571.66;;;15.62;34.10
42727;BME280;28372;56.832;60.658;2023-05-07T12:25:04;97549.94;;;15.54;34.27
42727;BME280;28372;56.832;60.658;2023-05-07T12:27:32;97555.56;;;15.40;34.65
42727;BME280;28372;56.832;60.658;2023-05-07T12:29:59;97542.09;;;15.29;34.75
42727;BME280;28372;56.832;60.658;2023-05-07T12:32:30;97560.16;;;15.16;34.79
42727;BME280;28372;56.832;60.658;2023-05-07T12:35:05;97555.94;;;15.11;35.30
42727;BME280;28372;56.832;60.658;2023-05-07T12:37:35;97550.59;;;15.00;35.48
42727;BME280;28372;56.832;60.658;2023-05-07T12:40:13;97548.00;;;14.89;35.27
42727;BME280;28372;56.832;60.658;2023-05-07T12:42:41;97543.84;;;14.78;35.39
42727;BME280;28372;56.832;60.658;2023-05-07T12:45:15;97562.00;;;14.88;35.77
42727;BME280;28372;56.832;60.658;2023-05-07T12:47:47;97558.38;;;14.64;36.12
42727;BME280;28372;56.832;60.658;2023-05-07T12:50:16;97572.44;;;14.55;35.45
42727;BME280;28372;56.832;60.658;2023-05-07T12:52:45;97573.19;;;14.59;35.63
42727;BME280;28372;56.832;60.658;2023-05-07T12:55:17;97587.16;;;14.61;36.37
42727;BME280;28372;56.832;60.658;2023-05-07T12:57:48;97598.03;;;14.61;36.38
42727;BME280;28372;56.832;60.658;2023-05-07T13:00:16;97597.41;;;14.43;36.16
42727;BME280;28372;56.832;60.658;2023-05-07T13:02:45;97579.94;;;14.44;36.18
42727;BME280;28372;56.832;60.658;2023-05-07T13:05:13;97577.56;;;14.46;36.15
42727;BME280;28372;56.832;60.658;2023-05-07T13:07:41;97571.44;;;14.34;36.08
42727;BME280;28372;56.832;60.658;2023-05-07T13:10:19;97564.16;;;14.24;35.90
42727;BME280;28372;56.832;60.658;2023-05-07T13:12:47;97567.22;;;14.30;35.29